createdAt,value
2018-05-25T22:17:57.954Z,50
2018-05-25T22:19:58.613Z,49.6
2018-05-25T22:21:58.318Z,49.5
2018-05-25T22:23:58.618Z,49
2018-05-25T22:26:00.875Z,49.1
2018-05-25T22:27:58.678Z,49
2018-05-25T22:29:58.883Z,48.9
2018-05-25T22:32:03.592Z,48.5
2018-05-25T22:34:00.809Z,48.2
2018-05-25T22:35:58.460Z,48.2
2018-05-25T22:37:58.253Z,48.1
2018-05-25T22:39:58.026Z,48.3
2018-05-25T22:41:59.025Z,48.3
2018-05-25T22:44:03.686Z,48.5
2018-05-25T22:45:58.422Z,48.5
2018-05-25T22:47:58.775Z,48.5
2018-05-25T22:49:58.021Z,48.7
2018-05-25T22:51:58.292Z,48.7
2018-05-25T22:53:57.992Z,48.4
2018-05-25T22:55:58.323Z,48.2
2018-05-25T22:58:00.619Z,48
2018-05-25T22:59:58.333Z,48
2018-05-25T23:02:03.062Z,48
2018-05-25T23:04:03.522Z,48.1
2018-05-25T23:05:58.448Z,47.9
2018-05-25T23:07:58.134Z,48
2018-05-25T23:09:58.058Z,47.9
2018-05-25T23:11:58.725Z,47.8
2018-05-25T23:13:58.483Z,47.8
2018-05-25T23:16:07.926Z,47.8
2018-05-25T23:18:05.848Z,47.6
2018-05-25T23:20:05.479Z,47.7
2018-05-25T23:22:05.203Z,47.7
2018-05-25T23:24:09.202Z,47.7
2018-05-25T23:26:07.914Z,47.7
2018-05-25T23:28:05.157Z,47.6
2018-05-25T23:30:05.126Z,47.6
2018-05-25T23:32:05.714Z,47.6
2018-05-25T23:34:07.566Z,47.4
2018-05-25T23:36:06.012Z,47.4
2018-05-25T23:38:06.005Z,47.4
2018-05-25T23:40:05.766Z,47.4
2018-05-25T23:42:05.511Z,47.4
2018-05-25T23:44:05.401Z,47.3
2018-05-25T23:46:05.071Z,47.4
2018-05-25T23:48:05.581Z,47.4
2018-05-25T23:50:13.482Z,47.3
2018-05-25T23:52:05.923Z,47.3
2018-05-25T23:54:05.444Z,47.3
2018-05-25T23:56:05.683Z,47.3
2018-05-25T23:58:05.322Z,47.2
